Beavercreek, Ohio
Current Conditions -  °F | °C
As of 8:58 PM on Saturday 25 Oct 2014 (Local Time) from KFFO Reporting Station
Clear Clear  
Wind Chill: 62°   Ceiling: Unl
Heat Index: 62°   Visibility: 10mi
Dew Point: 44°   Wind: 2mph
Humidity: 52%   Direction: 310°NW
Pressure: 29.88"   Gusts: NA
Location:  39.73°N, 84.06°W
Report Text: KFFO 260058Z AUTO 31002KT 10SM CLR 17/07 A2988 RMK AO2 SLP121 T01680069
Loading
Personal Weather Stations






























Interactive Weather Map
Tropical Storm Tracking
New forecast layout! Learn more

10-Day Weather Forecast

Advertisements
Track Severe Weather on mobile